sensor_id;sensor_type;location;lat;lon;timestamp;temperature;humidity
780;DHT22;373;49.342;8.146;2022-08-16T00:02:08;19.50;1.00
780;DHT22;373;49.342;8.146;2022-08-16T00:04:35;19.70;1.00
780;DHT22;373;49.342;8.146;2022-08-16T00:07:03;20.00;1.00
780;DHT22;373;49.342;8.146;2022-08-16T00:09:31;19.90;1.00
780;DHT22;373;49.342;8.146;2022-08-16T00:11:58;20.00;1.00
780;DHT22;373;49.342;8.146;2022-08-16T00:14:29;19.90;1.00
780;DHT22;373;49.342;8.146;2022-08-16T00:16:57;19.90;1.00
780;DHT22;373;49.342;8.146;2022-08-16T00:19:28;19.70;1.00
780;DHT22;373;49.342;8.146;2022-08-16T00:21:56;19.60;1.00
780;DHT22;373;49.342;8.146;2022-08-16T00:24:27;19.70;1.00
780;DHT22;373;49.342;8.146;2022-08-16T00:26:54;19.70;1.00
780;DHT22;373;49.342;8.146;2022-08-16T00:29:22;20.00;1.00
780;DHT22;373;49.342;8.146;2022-08-16T00:31:52;20.30;1.00
780;DHT22;373;49.342;8.146;2022-08-16T00:34:21;20.30;1.00
780;DHT22;373;49.342;8.146;2022-08-16T00:36:48;20.40;1.00
780;DHT22;373;49.342;8.146;2022-08-16T00:39:17;20.40;1.00
780;DHT22;373;49.342;8.146;2022-08-16T00:41:47;20.50;1.00
780;DHT22;373;49.342;8.146;2022-08-16T00:44:18;20.80;1.00
780;DHT22;373;49.342;8.146;2022-08-16T00:46:48;20.80;1.00
780;DHT22;373;49.342;8.146;2022-08-16T00:49:17;21.00;99.90
780;DHT22;373;49.342;8.146;2022-08-16T00:51:45;20.90;99.90
780;DHT22;373;49.342;8.146;2022-08-16T00:54:12;20.60;99.90
780;DHT22;373;49.342;8.146;2022-08-16T00:56:43;20.10;1.00
780;DHT22;373;49.342;8.146;2022-08-16T00:59:13;19.60;1.00
780;DHT22;373;49.342;8.146;2022-08-16T01:01:42;19.20;1.00
780;DHT22;373;49.342;8.146;2022-08-16T01:04:11;19.10;1.00
780;DHT22;373;49.342;8.146;2022-08-16T01:06:39;18.90;19.60
780;DHT22;373;49.342;8.146;2022-08-16T01:09:06;19.20;9.50
780;DHT22;373;49.342;8.146;2022-08-16T01:11:36;19.30;1.00
780;DHT22;373;49.342;8.146;2022-08-16T01:14:08;19.60;1.00
780;DHT22;373;49.342;8.146;2022-08-16T01:16:37;19.80;1.00
780;DHT22;373;49.342;8.146;2022-08-16T01:19:13;19.90;1.00
780;DHT22;373;49.342;8.146;2022-08-16T01:21:50;19.90;1.00
780;DHT22;373;49.342;8.146;2022-08-16T01:24:23;19.90;1.00
780;DHT22;373;49.342;8.146;2022-08-16T01:26:53;20.20;1.00
780;DHT22;373;49.342;8.146;2022-08-16T01:29:25;20.20;1.00
780;DHT22;373;49.342;8.146;2022-08-16T01:31:53;20.00;1.00
780;DHT22;373;49.342;8.146;2022-08-16T01:34:21;19.70;1.00
780;DHT22;373;49.342;8.146;2022-08-16T01:36:56;19.60;1.00
780;DHT22;373;49.342;8.146;2022-08-16T01:39:26;19.60;1.00
780;DHT22;373;49.342;8.146;2022-08-16T01:41:54;19.70;1.00
780;DHT22;373;49.342;8.146;2022-08-16T01:44:21;19.50;1.00
780;DHT22;373;49.342;8.146;2022-08-16T01:46:49;19.20;1.00
780;DHT22;373;49.342;8.146;2022-08-16T01:49:21;19.20;1.00
780;DHT22;373;49.342;8.146;2022-08-16T01:51:55;19.30;1.00
780;DHT22;373;49.342;8.146;2022-08-16T01:54:39;19.50;1.00
780;DHT22;373;49.342;8.146;2022-08-16T01:57:07;19.50;1.00
780;DHT22;373;49.342;8.146;2022-08-16T01:59:36;19.90;1.00
780;DHT22;373;49.342;8.146;2022-08-16T02:02:04;19.90;1.00
780;DHT22;373;49.342;8.146;2022-08-16T02:04:33;19.90;1.00
780;DHT22;373;49.342;8.146;2022-08-16T02:07:00;19.80;1.00
780;DHT22;373;49.342;8.146;2022-08-16T02:09:30;19.90;1.00
780;DHT22;373;49.342;8.146;2022-08-16T02:11:59;19.70;1.00
780;DHT22;373;49.342;8.146;2022-08-16T02:14:29;20.00;1.00
780;DHT22;373;49.342;8.146;2022-08-16T02:17:04;19.70;1.00
780;DHT22;373;49.342;8.146;2022-08-16T02:19:34;19.80;1.00
780;DHT22;373;49.342;8.146;2022-08-16T02:22:03;20.10;1.00
780;DHT22;373;49.342;8.146;2022-08-16T02:24:33;20.20;1.00
780;DHT22;373;49.342;8.146;2022-08-16T02:27:01;20.50;1.00
780;DHT22;373;49.342;8.146;2022-08-16T02:29:29;20.30;1.00
780;DHT22;373;49.342;8.146;2022-08-16T02:31:57;20.30;1.00
780;DHT22;373;49.342;8.146;2022-08-16T02:34:24;20.30;1.00
780;DHT22;373;49.342;8.146;2022-08-16T02:36:52;20.30;1.00
780;DHT22;373;49.342;8.146;2022-08-16T02:39:20;20.20;1.00
780;DHT22;373;49.342;8.146;2022-08-16T02:41:50;20.10;1.00
780;DHT22;373;49.342;8.146;2022-08-16T02:44:19;19.80;1.00
780;DHT22;373;49.342;8.146;2022-08-16T02:46:49;19.70;1.00
780;DHT22;373;49.342;8.146;2022-08-16T02:49:17;19.60;1.00
780;DHT22;373;49.342;8.146;2022-08-16T02:51:46;19.30;1.00
780;DHT22;373;49.342;8.146;2022-08-16T02:54:14;19.00;1.00
780;DHT22;373;49.342;8.146;2022-08-16T02:56:42;19.00;15.70
780;DHT22;373;49.342;8.146;2022-08-16T02:59:11;19.10;8.50
780;DHT22;373;49.342;8.146;2022-08-16T03:01:40;19.30;1.00
780;DHT22;373;49.342;8.146;2022-08-16T03:04:14;18.90;7.40
780;DHT22;373;49.342;8.146;2022-08-16T03:06:41;18.70;37.70
780;DHT22;373;49.342;8.146;2022-08-16T03:09:17;18.70;64.00
780;DHT22;373;49.342;8.146;2022-08-16T03:11:48;18.80;56.60
780;DHT22;373;49.342;8.146;2022-08-16T03:14:19;18.90;82.50
780;DHT22;373;49.342;8.146;2022-08-16T03:16:49;19.30;20.50
780;DHT22;373;49.342;8.146;2022-08-16T03:19:16;19.60;1.00
780;DHT22;373;49.342;8.146;2022-08-16T03:21:44;19.90;1.00
780;DHT22;373;49.342;8.146;2022-08-16T03:24:11;20.10;1.00
780;DHT22;373;49.342;8.146;2022-08-16T03:26:39;20.10;1.00
780;DHT22;373;49.342;8.146;2022-08-16T03:29:06;19.70;1.00
780;DHT22;373;49.342;8.146;2022-08-16T03:31:33;19.20;1.00
780;DHT22;373;49.342;8.146;2022-08-16T03:34:02;19.00;11.10
780;DHT22;373;49.342;8.146;2022-08-16T03:36:29;19.10;12.10
780;DHT22;373;49.342;8.146;2022-08-16T03:39:01;19.10;1.00
780;DHT22;373;49.342;8.146;2022-08-16T03:41:28;19.20;1.00
780;DHT22;373;49.342;8.146;2022-08-16T03:43:59;19.40;1.00
780;DHT22;373;49.342;8.146;2022-08-16T03:46:28;19.40;1.00
780;DHT22;373;49.342;8.146;2022-08-16T03:48:56;19.50;1.00
780;DHT22;373;49.342;8.146;2022-08-16T03:51:25;19.50;1.00
780;DHT22;373;49.342;8.146;2022-08-16T03:53:59;19.40;1.00
780;DHT22;373;49.342;8.146;2022-08-16T03:56:26;19.30;1.00
780;DHT22;373;49.342;8.146;2022-08-16T03:58:54;19.20;8.60
780;DHT22;373;49.342;8.146;2022-08-16T04:01:25;19.30;1.00
780;DHT22;373;49.342;8.146;2022-08-16T04:03:53;19.00;1.00
780;DHT22;373;49.342;8.146;2022-08-16T04:06:20;19.00;1.00
780;DHT22;373;49.342;8.146;2022-08-16T04:08:49;18.90;1.00
780;DHT22;373;49.342;8.146;2022-08-16T04:11:17;18.80;7.20
780;DHT22;373;49.342;8.146;2022-08-16T04:13:45;19.00;1.00
780;DHT22;373;49.342;8.146;2022-08-16T04:16:14;18.80;1.00
780;DHT22;373;49.342;8.146;2022-08-16T04:18:44;18.80;2.60
780;DHT22;373;49.342;8.146;2022-08-16T04:21:11;18.60;5.30
780;DHT22;373;49.342;8.146;2022-08-16T04:23:38;18.60;33.60
780;DHT22;373;49.342;8.146;2022-08-16T04:26:08;18.80;13.60
780;DHT22;373;49.342;8.146;2022-08-16T04:28:39;18.90;1.00
780;DHT22;373;49.342;8.146;2022-08-16T04:31:09;18.90;1.00
780;DHT22;373;49.342;8.146;2022-08-16T04:33:39;19.10;1.00
780;DHT22;373;49.342;8.146;2022-08-16T04:36:06;19.10;1.00
780;DHT22;373;49.342;8.146;2022-08-16T04:38:35;19.30;1.00
780;DHT22;373;49.342;8.146;2022-08-16T04:41:02;19.20;1.00
780;DHT22;373;49.342;8.146;2022-08-16T04:43:33;19.10;1.00
780;DHT22;373;49.342;8.146;2022-08-16T04:46:04;18.60;26.70
780;DHT22;373;49.342;8.146;2022-08-16T04:48:37;18.40;80.00
780;DHT22;373;49.342;8.146;2022-08-16T04:51:10;18.40;86.40
780;DHT22;373;49.342;8.146;2022-08-16T04:53:42;18.20;99.90
780;DHT22;373;49.342;8.146;2022-08-16T04:56:10;18.00;99.90
780;DHT22;373;49.342;8.146;2022-08-16T04:58:38;17.60;99.90
780;DHT22;373;49.342;8.146;2022-08-16T05:01:05;17.50;99.90
780;DHT22;373;49.342;8.146;2022-08-16T05:03:32;17.60;99.90
780;DHT22;373;49.342;8.146;2022-08-16T05:06:00;17.90;99.90
780;DHT22;373;49.342;8.146;2022-08-16T05:08:28;18.10;99.90
780;DHT22;373;49.342;8.146;2022-08-16T05:11:02;17.90;99.90
780;DHT22;373;49.342;8.146;2022-08-16T05:13:31;17.90;99.90
780;DHT22;373;49.342;8.146;2022-08-16T05:16:01;18.00;99.90
780;DHT22;373;49.342;8.146;2022-08-16T08:31:44;27.50;91.30
780;DHT22;373;49.342;8.146;2022-08-16T08:34:12;27.10;91.50
780;DHT22;373;49.342;8.146;2022-08-16T08:36:41;26.50;92.10
780;DHT22;373;49.342;8.146;2022-08-16T08:39:32;26.40;92.70
780;DHT22;373;49.342;8.146;2022-08-16T08:41:59;26.30;92.50
780;DHT22;373;49.342;8.146;2022-08-16T08:44:27;26.00;93.30
780;DHT22;373;49.342;8.146;2022-08-16T08:46:59;25.80;93.70
780;DHT22;373;49.342;8.146;2022-08-16T08:49:27;26.30;93.10
780;DHT22;373;49.342;8.146;2022-08-16T08:51:55;26.30;92.70
780;DHT22;373;49.342;8.146;2022-08-16T08:54:23;26.20;93.60
780;DHT22;373;49.342;8.146;2022-08-16T08:56:53;26.30;93.10
780;DHT22;373;49.342;8.146;2022-08-16T08:59:36;26.60;92.50
780;DHT22;373;49.342;8.146;2022-08-16T09:02:06;26.70;92.70
780;DHT22;373;49.342;8.146;2022-08-16T09:04:49;26.90;92.20
780;DHT22;373;49.342;8.146;2022-08-16T09:07:20;26.90;92.00
780;DHT22;373;49.342;8.146;2022-08-16T09:09:49;26.90;92.20
780;DHT22;373;49.342;8.146;2022-08-16T09:12:16;26.90;92.20
780;DHT22;373;49.342;8.146;2022-08-16T09:15:06;27.00;91.70
780;DHT22;373;49.342;8.146;2022-08-16T09:17:35;27.80;91.70
780;DHT22;373;49.342;8.146;2022-08-16T09:20:04;28.80;89.00
780;DHT22;373;49.342;8.146;2022-08-16T09:22:34;29.30;88.40
780;DHT22;373;49.342;8.146;2022-08-16T09:25:01;29.50;86.80
780;DHT22;373;49.342;8.146;2022-08-16T09:27:29;29.80;85.30
780;DHT22;373;49.342;8.146;2022-08-16T09:30:00;28.90;85.10
780;DHT22;373;49.342;8.146;2022-08-16T09:32:33;27.80;89.40
780;DHT22;373;49.342;8.146;2022-08-16T09:35:03;28.30;88.00
780;DHT22;373;49.342;8.146;2022-08-16T09:37:31;27.90;88.50
780;DHT22;373;49.342;8.146;2022-08-16T09:40:00;28.40;88.60
780;DHT22;373;49.342;8.146;2022-08-16T09:42:28;28.90;86.70
780;DHT22;373;49.342;8.146;2022-08-16T09:44:55;28.00;87.90
780;DHT22;373;49.342;8.146;2022-08-16T09:47:24;27.80;88.70
780;DHT22;373;49.342;8.146;2022-08-16T09:49:53;27.70;88.90
780;DHT22;373;49.342;8.146;2022-08-16T09:52:21;27.30;88.50
780;DHT22;373;49.342;8.146;2022-08-16T09:54:48;27.40;89.70
780;DHT22;373;49.342;8.146;2022-08-16T09:57:24;27.40;89.90
780;DHT22;373;49.342;8.146;2022-08-16T09:59:51;26.90;90.30
780;DHT22;373;49.342;8.146;2022-08-16T10:02:19;26.60;91.30
780;DHT22;373;49.342;8.146;2022-08-16T10:04:49;27.00;90.90
780;DHT22;373;49.342;8.146;2022-08-16T10:07:16;27.30;90.90
780;DHT22;373;49.342;8.146;2022-08-16T10:09:45;27.20;91.10
780;DHT22;373;49.342;8.146;2022-08-16T10:12:15;27.40;90.20
780;DHT22;373;49.342;8.146;2022-08-16T10:15:00;27.20;90.70
780;DHT22;373;49.342;8.146;2022-08-16T10:17:27;27.30;90.20
780;DHT22;373;49.342;8.146;2022-08-16T10:19:57;27.20;90.40
780;DHT22;373;49.342;8.146;2022-08-16T10:22:25;27.10;90.50
780;DHT22;373;49.342;8.146;2022-08-16T10:24:53;27.20;90.80
780;DHT22;373;49.342;8.146;2022-08-16T10:27:21;27.30;90.30
780;DHT22;373;49.342;8.146;2022-08-16T10:29:48;27.30;89.80
780;DHT22;373;49.342;8.146;2022-08-16T10:32:15;27.40;89.50
780;DHT22;373;49.342;8.146;2022-08-16T10:34:43;27.70;89.60
780;DHT22;373;49.342;8.146;2022-08-16T10:37:13;28.30;88.60
780;DHT22;373;49.342;8.146;2022-08-16T10:39:40;28.70;86.10
780;DHT22;373;49.342;8.146;2022-08-16T10:42:18;28.80;85.50
780;DHT22;373;49.342;8.146;2022-08-16T10:44:47;28.70;84.70
780;DHT22;373;49.342;8.146;2022-08-16T10:47:21;29.20;85.00
780;DHT22;373;49.342;8.146;2022-08-16T10:49:54;28.80;83.50
780;DHT22;373;49.342;8.146;2022-08-16T10:52:25;28.40;84.30
780;DHT22;373;49.342;8.146;2022-08-16T10:55:04;28.20;85.50
780;DHT22;373;49.342;8.146;2022-08-16T10:57:37;27.80;86.00
780;DHT22;373;49.342;8.146;2022-08-16T11:00:12;27.80;86.50
780;DHT22;373;49.342;8.146;2022-08-16T11:02:43;28.10;86.30
780;DHT22;373;49.342;8.146;2022-08-16T11:05:13;28.10;86.10
780;DHT22;373;49.342;8.146;2022-08-16T11:07:43;28.10;86.00
780;DHT22;373;49.342;8.146;2022-08-16T11:10:23;28.10;86.30
780;DHT22;373;49.342;8.146;2022-08-16T11:13:06;27.50;86.00
780;DHT22;373;49.342;8.146;2022-08-16T11:15:44;28.00;86.50
780;DHT22;373;49.342;8.146;2022-08-16T11:18:14;28.30;85.00
780;DHT22;373;49.342;8.146;2022-08-16T11:20:59;28.70;84.40
780;DHT22;373;49.342;8.146;2022-08-16T11:23:27;28.60;84.40
780;DHT22;373;49.342;8.146;2022-08-16T11:25:55;28.70;84.00
780;DHT22;373;49.342;8.146;2022-08-16T11:28:24;28.40;84.20
780;DHT22;373;49.342;8.146;2022-08-16T11:30:53;28.20;84.40
780;DHT22;373;49.342;8.146;2022-08-16T11:33:21;28.60;85.10
780;DHT22;373;49.342;8.146;2022-08-16T11:35:48;28.80;83.10
780;DHT22;373;49.342;8.146;2022-08-16T11:38:18;28.10;85.40
780;DHT22;373;49.342;8.146;2022-08-16T11:40:49;27.60;85.10
780;DHT22;373;49.342;8.146;2022-08-16T11:43:31;27.60;86.00
780;DHT22;373;49.342;8.146;2022-08-16T11:46:08;27.40;86.30
780;DHT22;373;49.342;8.146;2022-08-16T11:48:38;28.10;85.70
780;DHT22;373;49.342;8.146;2022-08-16T11:51:06;28.30;84.40
780;DHT22;373;49.342;8.146;2022-08-16T11:53:40;28.30;83.70
780;DHT22;373;49.342;8.146;2022-08-16T11:56:07;28.00;84.30
780;DHT22;373;49.342;8.146;2022-08-16T11:58:38;27.90;84.60
780;DHT22;373;49.342;8.146;2022-08-16T12:01:15;28.10;84.30
780;DHT22;373;49.342;8.146;2022-08-16T12:03:43;28.40;83.50
780;DHT22;373;49.342;8.146;2022-08-16T12:06:18;28.30;83.10
780;DHT22;373;49.342;8.146;2022-08-16T12:08:51;28.30;83.20
780;DHT22;373;49.342;8.146;2022-08-16T12:11:23;28.60;82.70
780;DHT22;373;49.342;8.146;2022-08-16T12:13:56;28.60;82.20
780;DHT22;373;49.342;8.146;2022-08-16T12:16:23;29.00;82.20
780;DHT22;373;49.342;8.146;2022-08-16T12:18:51;29.20;80.50
780;DHT22;373;49.342;8.146;2022-08-16T12:21:25;28.70;81.70
780;DHT22;373;49.342;8.146;2022-08-16T12:24:04;28.70;81.90
780;DHT22;373;49.342;8.146;2022-08-16T12:26:33;28.70;80.80
780;DHT22;373;49.342;8.146;2022-08-16T12:29:03;28.10;81.90
780;DHT22;373;49.342;8.146;2022-08-16T12:31:33;28.10;81.90
780;DHT22;373;49.342;8.146;2022-08-16T12:34:01;28.20;82.20
780;DHT22;373;49.342;8.146;2022-08-16T12:36:32;28.90;80.90
780;DHT22;373;49.342;8.146;2022-08-16T12:39:01;29.60;79.60
780;DHT22;373;49.342;8.146;2022-08-16T12:41:32;29.80;78.40
780;DHT22;373;49.342;8.146;2022-08-16T12:44:02;29.70;77.70
780;DHT22;373;49.342;8.146;2022-08-16T12:46:32;29.60;78.60
780;DHT22;373;49.342;8.146;2022-08-16T12:49:04;29.90;77.60
780;DHT22;373;49.342;8.146;2022-08-16T12:51:36;30.60;76.50
780;DHT22;373;49.342;8.146;2022-08-16T12:54:13;30.70;74.50
780;DHT22;373;49.342;8.146;2022-08-16T12:56:46;30.60;74.70
780;DHT22;373;49.342;8.146;2022-08-16T12:59:14;30.10;74.00
780;DHT22;373;49.342;8.146;2022-08-16T13:01:45;29.70;75.90
780;DHT22;373;49.342;8.146;2022-08-16T13:04:31;29.60;75.10
780;DHT22;373;49.342;8.146;2022-08-16T13:07:05;29.70;74.10
780;DHT22;373;49.342;8.146;2022-08-16T13:09:33;29.20;75.70
780;DHT22;373;49.342;8.146;2022-08-16T13:12:17;29.50;74.50
780;DHT22;373;49.342;8.146;2022-08-16T13:14:57;29.90;74.70
780;DHT22;373;49.342;8.146;2022-08-16T13:17:26;30.10;73.60
780;DHT22;373;49.342;8.146;2022-08-16T13:20:04;29.70;74.50
780;DHT22;373;49.342;8.146;2022-08-16T13:22:53;29.50;75.00
780;DHT22;373;49.342;8.146;2022-08-16T13:25:35;29.30;75.10
780;DHT22;373;49.342;8.146;2022-08-16T13:28:07;29.60;75.10
780;DHT22;373;49.342;8.146;2022-08-16T13:30:55;29.70;74.20
780;DHT22;373;49.342;8.146;2022-08-16T13:33:26;29.60;74.60
780;DHT22;373;49.342;8.146;2022-08-16T13:36:01;29.80;74.30
780;DHT22;373;49.342;8.146;2022-08-16T13:38:33;29.90;73.40
780;DHT22;373;49.342;8.146;2022-08-16T13:41:08;29.90;72.90
780;DHT22;373;49.342;8.146;2022-08-16T13:43:43;30.10;72.10
780;DHT22;373;49.342;8.146;2022-08-16T13:46:18;30.10;71.90
780;DHT22;373;49.342;8.146;2022-08-16T13:48:48;29.80;72.50
780;DHT22;373;49.342;8.146;2022-08-16T13:51:19;29.60;72.80
780;DHT22;373;49.342;8.146;2022-08-16T13:53:51;29.50;73.80
780;DHT22;373;49.342;8.146;2022-08-16T13:56:20;29.60;73.20
780;DHT22;373;49.342;8.146;2022-08-16T13:58:52;29.10;73.50
780;DHT22;373;49.342;8.146;2022-08-16T14:01:32;29.10;74.20
780;DHT22;373;49.342;8.146;2022-08-16T14:04:08;29.20;74.30
780;DHT22;373;49.342;8.146;2022-08-16T14:06:36;29.40;74.20
780;DHT22;373;49.342;8.146;2022-08-16T14:09:07;29.20;72.90
780;DHT22;373;49.342;8.146;2022-08-16T14:11:36;28.90;72.80
780;DHT22;373;49.342;8.146;2022-08-16T14:14:04;29.00;72.60
780;DHT22;373;49.342;8.146;2022-08-16T14:16:35;28.70;72.50
780;DHT22;373;49.342;8.146;2022-08-16T14:19:09;28.90;73.30
780;DHT22;373;49.342;8.146;2022-08-16T14:21:55;29.10;73.10
780;DHT22;373;49.342;8.146;2022-08-16T14:24:24;29.30;72.70
780;DHT22;373;49.342;8.146;2022-08-16T14:27:10;29.40;72.90
780;DHT22;373;49.342;8.146;2022-08-16T14:29:38;29.80;72.10
780;DHT22;373;49.342;8.146;2022-08-16T14:32:16;29.80;71.90
780;DHT22;373;49.342;8.146;2022-08-16T14:34:54;29.40;72.50
780;DHT22;373;49.342;8.146;2022-08-16T14:37:37;29.40;73.30
780;DHT22;373;49.342;8.146;2022-08-16T14:40:05;29.30;72.00
780;DHT22;373;49.342;8.146;2022-08-16T14:42:33;29.20;71.80
780;DHT22;373;49.342;8.146;2022-08-16T14:45:00;29.60;70.90
780;DHT22;373;49.342;8.146;2022-08-16T14:47:29;30.10;69.90
780;DHT22;373;49.342;8.146;2022-08-16T14:49:56;30.20;69.50
780;DHT22;373;49.342;8.146;2022-08-16T14:52:24;30.10;69.50
780;DHT22;373;49.342;8.146;2022-08-16T14:54:51;30.30;69.00
780;DHT22;373;49.342;8.146;2022-08-16T14:57:19;30.10;69.80
780;DHT22;373;49.342;8.146;2022-08-16T14:59:47;29.80;70.20
780;DHT22;373;49.342;8.146;2022-08-16T15:02:26;29.40;70.60
780;DHT22;373;49.342;8.146;2022-08-16T15:08:05;29.20;71.10
780;DHT22;373;49.342;8.146;2022-08-16T15:10:40;29.30;71.00
780;DHT22;373;49.342;8.146;2022-08-16T15:13:18;29.20;70.70
780;DHT22;373;49.342;8.146;2022-08-16T15:16:02;29.10;70.90
780;DHT22;373;49.342;8.146;2022-08-16T15:18:30;29.10;70.60
780;DHT22;373;49.342;8.146;2022-08-16T15:21:09;29.00;70.70
780;DHT22;373;49.342;8.146;2022-08-16T15:23:43;29.10;70.70
780;DHT22;373;49.342;8.146;2022-08-16T15:26:16;29.50;70.40
780;DHT22;373;49.342;8.146;2022-08-16T15:28:51;29.60;69.60
780;DHT22;373;49.342;8.146;2022-08-16T15:31:24;29.70;69.80
780;DHT22;373;49.342;8.146;2022-08-16T15:33:57;29.70;69.20
780;DHT22;373;49.342;8.146;2022-08-16T15:36:30;29.80;69.10
780;DHT22;373;49.342;8.146;2022-08-16T15:39:06;29.80;69.40
780;DHT22;373;49.342;8.146;2022-08-16T15:41:59;29.60;69.40
780;DHT22;373;49.342;8.146;2022-08-16T15:44:33;29.50;70.20
780;DHT22;373;49.342;8.146;2022-08-16T15:47:10;29.30;69.90
780;DHT22;373;49.342;8.146;2022-08-16T15:52:35;29.70;69.30
780;DHT22;373;49.342;8.146;2022-08-16T15:55:09;29.70;69.80
780;DHT22;373;49.342;8.146;2022-08-16T15:57:38;29.80;70.20
780;DHT22;373;49.342;8.146;2022-08-16T16:00:10;29.60;70.00
780;DHT22;373;49.342;8.146;2022-08-16T16:02:38;29.90;69.60
780;DHT22;373;49.342;8.146;2022-08-16T16:05:09;30.30;68.60
780;DHT22;373;49.342;8.146;2022-08-16T16:07:38;30.40;66.20
780;DHT22;373;49.342;8.146;2022-08-16T16:10:13;30.30;66.90
780;DHT22;373;49.342;8.146;2022-08-16T16:12:42;30.20;66.80
780;DHT22;373;49.342;8.146;2022-08-16T16:15:10;30.40;66.50
780;DHT22;373;49.342;8.146;2022-08-16T16:17:40;29.90;66.20
780;DHT22;373;49.342;8.146;2022-08-16T16:20:11;29.70;66.70
780;DHT22;373;49.342;8.146;2022-08-16T16:22:41;29.40;67.40
780;DHT22;373;49.342;8.146;2022-08-16T16:25:09;29.30;68.00
780;DHT22;373;49.342;8.146;2022-08-16T16:27:42;29.40;69.40
780;DHT22;373;49.342;8.146;2022-08-16T16:30:11;29.40;69.20
780;DHT22;373;49.342;8.146;2022-08-16T16:32:41;29.20;69.00
780;DHT22;373;49.342;8.146;2022-08-16T16:35:09;29.30;68.40
780;DHT22;373;49.342;8.146;2022-08-16T16:37:41;29.40;68.90
780;DHT22;373;49.342;8.146;2022-08-16T16:40:16;29.40;68.70
780;DHT22;373;49.342;8.146;2022-08-16T16:42:44;29.70;68.00
780;DHT22;373;49.342;8.146;2022-08-16T16:45:15;30.10;67.30
780;DHT22;373;49.342;8.146;2022-08-16T16:47:42;30.30;67.40
780;DHT22;373;49.342;8.146;2022-08-16T16:50:10;30.60;66.10
780;DHT22;373;49.342;8.146;2022-08-16T16:52:43;30.50;65.20
780;DHT22;373;49.342;8.146;2022-08-16T16:55:12;30.10;65.90
780;DHT22;373;49.342;8.146;2022-08-16T16:57:40;29.90;66.80
780;DHT22;373;49.342;8.146;2022-08-16T17:00:26;30.10;66.80
780;DHT22;373;49.342;8.146;2022-08-16T17:02:53;30.10;65.90
780;DHT22;373;49.342;8.146;2022-08-16T17:05:21;29.90;66.30
780;DHT22;373;49.342;8.146;2022-08-16T17:07:51;29.80;66.40
780;DHT22;373;49.342;8.146;2022-08-16T17:10:18;29.90;66.10
780;DHT22;373;49.342;8.146;2022-08-16T17:12:46;30.00;66.10
780;DHT22;373;49.342;8.146;2022-08-16T17:15:13;29.90;66.80
780;DHT22;373;49.342;8.146;2022-08-16T17:17:42;29.70;67.60
780;DHT22;373;49.342;8.146;2022-08-16T17:22:50;30.20;66.00
780;DHT22;373;49.342;8.146;2022-08-16T17:25:17;30.30;65.40
780;DHT22;373;49.342;8.146;2022-08-16T17:27:44;30.20;65.40
780;DHT22;373;49.342;8.146;2022-08-16T17:30:16;30.10;65.00
780;DHT22;373;49.342;8.146;2022-08-16T17:32:48;29.90;65.00
780;DHT22;373;49.342;8.146;2022-08-16T17:35:22;29.80;65.60
780;DHT22;373;49.342;8.146;2022-08-16T17:37:50;30.00;65.70
780;DHT22;373;49.342;8.146;2022-08-16T17:40:18;30.00;65.60
780;DHT22;373;49.342;8.146;2022-08-16T17:42:45;30.30;64.70
780;DHT22;373;49.342;8.146;2022-08-16T17:45:12;30.40;64.20
780;DHT22;373;49.342;8.146;2022-08-16T17:47:39;30.60;64.10
780;DHT22;373;49.342;8.146;2022-08-16T17:50:09;30.50;65.30
780;DHT22;373;49.342;8.146;2022-08-16T17:52:37;30.60;65.10
780;DHT22;373;49.342;8.146;2022-08-16T17:55:05;30.40;65.50
780;DHT22;373;49.342;8.146;2022-08-16T17:57:32;30.20;66.90
780;DHT22;373;49.342;8.146;2022-08-16T18:00:00;30.10;67.70
780;DHT22;373;49.342;8.146;2022-08-16T18:02:37;29.90;68.20
780;DHT22;373;49.342;8.146;2022-08-16T18:05:05;29.90;68.90
780;DHT22;373;49.342;8.146;2022-08-16T18:07:33;29.50;68.90
780;DHT22;373;49.342;8.146;2022-08-16T18:10:02;29.30;69.50
780;DHT22;373;49.342;8.146;2022-08-16T18:12:31;29.20;70.00
780;DHT22;373;49.342;8.146;2022-08-16T18:14:58;29.20;70.00
780;DHT22;373;49.342;8.146;2022-08-16T18:17:25;29.10;70.30
780;DHT22;373;49.342;8.146;2022-08-16T18:19:52;29.10;70.30
780;DHT22;373;49.342;8.146;2022-08-16T18:22:24;28.90;70.70
780;DHT22;373;49.342;8.146;2022-08-16T18:24:52;29.20;70.60
780;DHT22;373;49.342;8.146;2022-08-16T18:27:20;29.20;70.30
780;DHT22;373;49.342;8.146;2022-08-16T18:29:49;29.20;70.60
780;DHT22;373;49.342;8.146;2022-08-16T18:32:17;29.30;70.50
780;DHT22;373;49.342;8.146;2022-08-16T18:34:44;29.40;70.20
780;DHT22;373;49.342;8.146;2022-08-16T18:37:11;29.40;70.40
780;DHT22;373;49.342;8.146;2022-08-16T18:39:38;29.40;70.70
780;DHT22;373;49.342;8.146;2022-08-16T18:42:11;29.10;71.30
780;DHT22;373;49.342;8.146;2022-08-16T18:44:40;28.80;72.50
780;DHT22;373;49.342;8.146;2022-08-16T18:47:08;28.70;72.80
780;DHT22;373;49.342;8.146;2022-08-16T18:49:35;28.10;73.20
780;DHT22;373;49.342;8.146;2022-08-16T18:52:03;27.90;74.20
780;DHT22;373;49.342;8.146;2022-08-16T18:54:32;27.50;75.60
780;DHT22;373;49.342;8.146;2022-08-16T18:56:59;27.40;75.10
780;DHT22;373;49.342;8.146;2022-08-16T18:59:29;27.40;74.60
780;DHT22;373;49.342;8.146;2022-08-16T19:01:59;27.60;74.00
780;DHT22;373;49.342;8.146;2022-08-16T19:04:26;27.90;73.00
780;DHT22;373;49.342;8.146;2022-08-16T19:06:53;28.00;72.70
780;DHT22;373;49.342;8.146;2022-08-16T19:09:20;28.10;72.40
780;DHT22;373;49.342;8.146;2022-08-16T19:11:47;27.80;73.30
780;DHT22;373;49.342;8.146;2022-08-16T19:14:14;27.70;73.40
780;DHT22;373;49.342;8.146;2022-08-16T19:16:42;27.60;73.60
780;DHT22;373;49.342;8.146;2022-08-16T19:19:10;27.60;73.40
780;DHT22;373;49.342;8.146;2022-08-16T19:21:37;27.40;73.80
780;DHT22;373;49.342;8.146;2022-08-16T19:24:04;27.30;74.40
780;DHT22;373;49.342;8.146;2022-08-16T19:26:31;27.00;75.40
780;DHT22;373;49.342;8.146;2022-08-16T19:28:58;26.70;75.80
780;DHT22;373;49.342;8.146;2022-08-16T19:31:28;26.40;76.90
780;DHT22;373;49.342;8.146;2022-08-16T19:33:57;26.40;77.30
780;DHT22;373;49.342;8.146;2022-08-16T19:36:26;26.20;77.60
780;DHT22;373;49.342;8.146;2022-08-16T19:38:55;26.40;77.70
780;DHT22;373;49.342;8.146;2022-08-16T19:41:22;26.40;77.60
780;DHT22;373;49.342;8.146;2022-08-16T19:43:49;26.30;78.40
780;DHT22;373;49.342;8.146;2022-08-16T19:46:16;26.10;78.80
780;DHT22;373;49.342;8.146;2022-08-16T19:48:43;26.00;79.10
780;DHT22;373;49.342;8.146;2022-08-16T19:51:11;25.80;79.40
780;DHT22;373;49.342;8.146;2022-08-16T19:53:41;25.70;79.90
780;DHT22;373;49.342;8.146;2022-08-16T19:56:08;25.70;80.00
780;DHT22;373;49.342;8.146;2022-08-16T19:58:35;25.70;80.30
780;DHT22;373;49.342;8.146;2022-08-16T20:01:03;25.60;80.80
780;DHT22;373;49.342;8.146;2022-08-16T20:03:30;25.50;81.30
780;DHT22;373;49.342;8.146;2022-08-16T20:05:58;25.30;81.90
780;DHT22;373;49.342;8.146;2022-08-16T20:08:26;25.10;82.70
780;DHT22;373;49.342;8.146;2022-08-16T20:10:53;24.90;84.00
780;DHT22;373;49.342;8.146;2022-08-16T20:13:22;24.80;84.80
780;DHT22;373;49.342;8.146;2022-08-16T20:15:49;24.70;85.30
780;DHT22;373;49.342;8.146;2022-08-16T20:18:17;24.70;85.70
780;DHT22;373;49.342;8.146;2022-08-16T20:20:45;24.70;86.10
780;DHT22;373;49.342;8.146;2022-08-16T20:23:16;24.70;86.30